sensor_id;sensor_type;location;lat;lon;timestamp;pressure;altitude;pressure_sealevel;temperature;humidity
68855;BME280;69984;-43.570;172.580;2023-05-11T07:07:59;101173.78;;;5.29;80.94
68855;BME280;69984;-43.570;172.580;2023-05-11T07:10:26;101182.41;;;5.69;78.03
68855;BME280;69984;-43.570;172.580;2023-05-11T07:12:53;101188.06;;;5.88;76.76
68855;BME280;69984;-43.570;172.580;2023-05-11T07:15:20;101185.56;;;5.99;75.68
68855;BME280;69984;-43.570;172.580;2023-05-11T07:17:47;101197.53;;;6.02;75.53
68855;BME280;69984;-43.570;172.580;2023-05-11T07:20:15;101197.44;;;5.91;76.20
68855;BME280;69984;-43.570;172.580;2023-05-11T07:22:42;101213.81;;;5.66;77.16
68855;BME280;69984;-43.570;172.580;2023-05-11T07:25:09;101215.59;;;5.66;76.72
68855;BME280;69984;-43.570;172.580;2023-05-11T07:27:37;101216.22;;;5.69;76.41
68855;BME280;69984;-43.570;172.580;2023-05-11T07:30:04;101217.44;;;5.64;76.59
68855;BME280;69984;-43.570;172.580;2023-05-11T07:32:32;101222.44;;;5.67;76.26
68855;BME280;69984;-43.570;172.580;2023-05-11T07:34:59;101227.47;;;5.70;75.90
68855;BME280;69984;-43.570;172.580;2023-05-11T07:37:26;101232.19;;;5.90;75.58
68855;BME280;69984;-43.570;172.580;2023-05-11T07:39:53;101243.00;;;5.84;76.23
68855;BME280;69984;-43.570;172.580;2023-05-11T07:42:20;101250.50;;;5.88;76.19
68855;BME280;69984;-43.570;172.580;2023-05-11T07:44:48;101251.25;;;5.90;75.98
68855;BME280;69984;-43.570;172.580;2023-05-11T07:47:15;101262.56;;;5.89;77.05
68855;BME280;69984;-43.570;172.580;2023-05-11T07:49:44;101260.53;;;5.94;77.25
68855;BME280;69984;-43.570;172.580;2023-05-11T07:52:13;101267.56;;;5.92;76.98
68855;BME280;69984;-43.570;172.580;2023-05-11T07:54:40;101266.47;;;5.82;78.36
68855;BME280;69984;-43.570;172.580;2023-05-11T07:57:07;101274.78;;;5.75;77.90
68855;BME280;69984;-43.570;172.580;2023-05-11T07:59:36;101284.97;;;5.78;78.25
68855;BME280;69984;-43.570;172.580;2023-05-11T08:02:05;101281.97;;;5.98;75.95
68855;BME280;69984;-43.570;172.580;2023-05-11T08:04:33;101280.53;;;5.80;75.62
68855;BME280;69984;-43.570;172.580;2023-05-11T08:07:02;101287.13;;;5.59;77.69
68855;BME280;69984;-43.570;172.580;2023-05-11T08:09:29;101288.97;;;5.57;78.24
68855;BME280;69984;-43.570;172.580;2023-05-11T08:11:58;101295.13;;;5.56;79.08
68855;BME280;69984;-43.570;172.580;2023-05-11T08:14:26;101303.22;;;5.51;80.23
68855;BME280;69984;-43.570;172.580;2023-05-11T08:16:53;101307.81;;;5.60;82.03
68855;BME280;69984;-43.570;172.580;2023-05-11T08:19:20;101312.78;;;5.50;82.13
68855;BME280;69984;-43.570;172.580;2023-05-11T08:21:47;101310.63;;;5.84;78.75
68855;BME280;69984;-43.570;172.580;2023-05-11T08:24:14;101319.19;;;5.98;75.27
68855;BME280;69984;-43.570;172.580;2023-05-11T08:26:42;101315.28;;;6.18;73.79
68855;BME280;69984;-43.570;172.580;2023-05-11T08:29:10;101322.13;;;6.07;74.37
68855;BME280;69984;-43.570;172.580;2023-05-11T08:31:37;101323.81;;;6.08;74.39
68855;BME280;69984;-43.570;172.580;2023-05-11T08:34:06;101329.03;;;6.20;73.75
68855;BME280;69984;-43.570;172.580;2023-05-11T08:36:36;101323.66;;;6.36;73.69
68855;BME280;69984;-43.570;172.580;2023-05-11T08:39:03;101337.97;;;6.16;74.14
68855;BME280;69984;-43.570;172.580;2023-05-11T08:41:32;101343.91;;;6.18;74.41
68855;BME280;69984;-43.570;172.580;2023-05-11T08:43:59;101341.03;;;6.35;73.61
68855;BME280;69984;-43.570;172.580;2023-05-11T08:46:29;101351.75;;;6.31;74.53
68855;BME280;69984;-43.570;172.580;2023-05-11T08:48:57;101357.22;;;6.14;75.41
68855;BME280;69984;-43.570;172.580;2023-05-11T08:51:24;101358.28;;;6.11;75.54
68855;BME280;69984;-43.570;172.580;2023-05-11T08:53:53;101357.53;;;6.09;75.92
68855;BME280;69984;-43.570;172.580;2023-05-11T08:56:24;101363.03;;;6.05;76.17
68855;BME280;69984;-43.570;172.580;2023-05-11T08:58:53;101368.97;;;6.07;76.75
68855;BME280;69984;-43.570;172.580;2023-05-11T09:01:25;101373.34;;;6.06;76.43
68855;BME280;69984;-43.570;172.580;2023-05-11T09:03:54;101369.81;;;6.07;76.43
68855;BME280;69984;-43.570;172.580;2023-05-11T09:06:23;101378.09;;;5.99;78.43
68855;BME280;69984;-43.570;172.580;2023-05-11T09:08:53;101376.75;;;5.94;79.69
68855;BME280;69984;-43.570;172.580;2023-05-11T09:11:20;101395.16;;;5.91;80.15
68855;BME280;69984;-43.570;172.580;2023-05-11T09:13:48;101404.34;;;5.96;80.60
68855;BME280;69984;-43.570;172.580;2023-05-11T09:16:15;101410.66;;;5.78;80.26
68855;BME280;69984;-43.570;172.580;2023-05-11T09:18:49;101415.78;;;5.94;75.81
68855;BME280;69984;-43.570;172.580;2023-05-11T09:21:17;101405.88;;;5.72;77.18
68855;BME280;69984;-43.570;172.580;2023-05-11T09:23:47;101406.97;;;5.68;77.98
68855;BME280;69984;-43.570;172.580;2023-05-11T09:26:21;101412.94;;;5.56;76.71
68855;BME280;69984;-43.570;172.580;2023-05-11T09:28:56;101419.78;;;5.71;76.37
68855;BME280;69984;-43.570;172.580;2023-05-11T09:31:40;101424.19;;;5.57;76.41
68855;BME280;69984;-43.570;172.580;2023-05-11T09:34:12;101437.38;;;5.39;77.39
68855;BME280;69984;-43.570;172.580;2023-05-11T09:36:44;101438.31;;;5.38;76.95
68855;BME280;69984;-43.570;172.580;2023-05-11T09:39:13;101437.19;;;5.14;77.15
68855;BME280;69984;-43.570;172.580;2023-05-11T09:41:40;101442.31;;;5.01;77.38
68855;BME280;69984;-43.570;172.580;2023-05-11T09:44:09;101442.22;;;5.03;77.66
68855;BME280;69984;-43.570;172.580;2023-05-11T09:46:37;101437.72;;;4.77;78.42
68855;BME280;69984;-43.570;172.580;2023-05-11T09:49:06;101443.00;;;4.75;78.49
68855;BME280;69984;-43.570;172.580;2023-05-11T09:51:35;101447.50;;;4.58;79.72
68855;BME280;69984;-43.570;172.580;2023-05-11T09:54:20;101451.53;;;4.63;78.71
68855;BME280;69984;-43.570;172.580;2023-05-11T09:56:52;101450.63;;;4.48;79.66
68855;BME280;69984;-43.570;172.580;2023-05-11T09:59:38;101447.63;;;4.40;79.43
68855;BME280;69984;-43.570;172.580;2023-05-11T10:02:22;101462.75;;;4.18;80.59
68855;BME280;69984;-43.570;172.580;2023-05-11T10:04:51;101459.81;;;4.24;80.62
68855;BME280;69984;-43.570;172.580;2023-05-11T10:07:29;101464.66;;;4.30;80.77
68855;BME280;69984;-43.570;172.580;2023-05-11T10:10:05;101465.19;;;4.21;81.11
68855;BME280;69984;-43.570;172.580;2023-05-11T10:12:33;101468.56;;;4.37;79.32
68855;BME280;69984;-43.570;172.580;2023-05-11T10:15:09;101460.31;;;4.61;77.27
68855;BME280;69984;-43.570;172.580;2023-05-11T10:17:37;101456.63;;;4.35;78.07
68855;BME280;69984;-43.570;172.580;2023-05-11T10:20:04;101473.28;;;4.15;78.80
68855;BME280;69984;-43.570;172.580;2023-05-11T10:22:32;101472.22;;;4.03;80.66
68855;BME280;69984;-43.570;172.580;2023-05-11T10:25:00;101481.25;;;4.12;80.62
68855;BME280;69984;-43.570;172.580;2023-05-11T10:27:27;101480.34;;;3.82;80.94
68855;BME280;69984;-43.570;172.580;2023-05-11T10:29:55;101474.56;;;3.77;80.91
68855;BME280;69984;-43.570;172.580;2023-05-11T10:32:24;101485.00;;;3.91;81.08
68855;BME280;69984;-43.570;172.580;2023-05-11T10:34:51;101481.00;;;3.85;81.19
68855;BME280;69984;-43.570;172.580;2023-05-11T10:37:18;101489.78;;;3.83;81.86
68855;BME280;69984;-43.570;172.580;2023-05-11T10:39:47;101497.03;;;3.61;82.99
68855;BME280;69984;-43.570;172.580;2023-05-11T10:43:02;101507.19;;;3.65;82.96
68855;BME280;69984;-43.570;172.580;2023-05-11T11:02:12;101517.13;;;3.88;81.55
68855;BME280;69984;-43.570;172.580;2023-05-11T11:04:45;101518.47;;;3.95;81.83
68855;BME280;69984;-43.570;172.580;2023-05-11T11:07:12;101526.75;;;4.02;81.07
68855;BME280;69984;-43.570;172.580;2023-05-11T11:09:55;101529.06;;;4.08;81.05
68855;BME280;69984;-43.570;172.580;2023-05-11T11:12:23;101524.34;;;4.30;78.79
68855;BME280;69984;-43.570;172.580;2023-05-11T11:15:00;101521.97;;;4.26;77.52
68855;BME280;69984;-43.570;172.580;2023-05-11T11:17:34;101530.28;;;4.32;77.69
68855;BME280;69984;-43.570;172.580;2023-05-11T11:20:03;101529.94;;;4.38;78.70
68855;BME280;69984;-43.570;172.580;2023-05-11T11:25:10;101529.75;;;4.57;79.10
68855;BME280;69984;-43.570;172.580;2023-05-11T11:30:27;101537.69;;;4.70;78.84
68855;BME280;69984;-43.570;172.580;2023-05-11T11:38:18;101544.06;;;4.94;76.38
68855;BME280;69984;-43.570;172.580;2023-05-11T11:40:50;101545.38;;;5.01;76.84
68855;BME280;69984;-43.570;172.580;2023-05-11T11:43:25;101555.78;;;5.01;79.36
68855;BME280;69984;-43.570;172.580;2023-05-11T11:51:06;101548.22;;;4.96;79.74
68855;BME280;69984;-43.570;172.580;2023-05-11T11:56:25;101540.41;;;4.82;83.26
68855;BME280;69984;-43.570;172.580;2023-05-11T11:58:58;101545.34;;;4.87;80.60
68855;BME280;69984;-43.570;172.580;2023-05-11T12:01:36;101548.53;;;4.92;81.21
68855;BME280;69984;-43.570;172.580;2023-05-11T12:06:36;101558.06;;;4.91;81.77
68855;BME280;69984;-43.570;172.580;2023-05-11T12:09:03;101545.78;;;4.79;83.75
68855;BME280;69984;-43.570;172.580;2023-05-11T12:11:31;101544.59;;;4.85;83.59
68855;BME280;69984;-43.570;172.580;2023-05-11T12:13:59;101551.97;;;4.77;83.00
68855;BME280;69984;-43.570;172.580;2023-05-11T12:16:28;101559.28;;;4.70;83.44
68855;BME280;69984;-43.570;172.580;2023-05-11T12:18:56;101557.84;;;4.80;84.45
68855;BME280;69984;-43.570;172.580;2023-05-11T12:21:26;101557.59;;;4.85;85.67
68855;BME280;69984;-43.570;172.580;2023-05-11T12:24:01;101550.78;;;4.82;84.00
68855;BME280;69984;-43.570;172.580;2023-05-11T12:26:29;101552.78;;;4.93;84.38
68855;BME280;69984;-43.570;172.580;2023-05-11T12:29:13;101560.25;;;4.83;85.64
68855;BME280;69984;-43.570;172.580;2023-05-11T12:31:46;101570.03;;;4.94;84.14
68855;BME280;69984;-43.570;172.580;2023-05-11T12:34:18;101561.63;;;5.04;82.12
68855;BME280;69984;-43.570;172.580;2023-05-11T12:36:46;101567.97;;;5.15;81.74
68855;BME280;69984;-43.570;172.580;2023-05-11T12:39:21;101561.84;;;5.16;80.32
68855;BME280;69984;-43.570;172.580;2023-05-11T12:41:50;101565.84;;;5.21;79.82
68855;BME280;69984;-43.570;172.580;2023-05-11T12:44:19;101569.72;;;5.14;81.74
68855;BME280;69984;-43.570;172.580;2023-05-11T12:46:48;101571.97;;;5.20;81.32
68855;BME280;69984;-43.570;172.580;2023-05-11T12:49:16;101574.41;;;5.23;80.56
68855;BME280;69984;-43.570;172.580;2023-05-11T12:51:59;101567.06;;;5.30;80.19
68855;BME280;69984;-43.570;172.580;2023-05-11T12:54:35;101575.53;;;5.33;79.55
68855;BME280;69984;-43.570;172.580;2023-05-11T12:57:07;101573.41;;;5.40;79.85
68855;BME280;69984;-43.570;172.580;2023-05-11T12:59:38;101572.19;;;5.45;79.38
68855;BME280;69984;-43.570;172.580;2023-05-11T13:02:16;101569.13;;;5.53;77.98
68855;BME280;69984;-43.570;172.580;2023-05-11T13:04:45;101579.25;;;5.58;78.60
68855;BME280;69984;-43.570;172.580;2023-05-11T13:07:21;101578.16;;;5.62;78.30
68855;BME280;69984;-43.570;172.580;2023-05-11T13:09:57;101581.50;;;5.64;78.86
68855;BME280;69984;-43.570;172.580;2023-05-11T13:12:24;101583.25;;;5.77;78.85
68855;BME280;69984;-43.570;172.580;2023-05-11T13:15:05;101574.91;;;5.72;79.17
68855;BME280;69984;-43.570;172.580;2023-05-11T13:17:34;101574.63;;;5.77;81.46
68855;BME280;69984;-43.570;172.580;2023-05-11T13:20:34;101580.00;;;5.74;82.70
68855;BME280;69984;-43.570;172.580;2023-05-11T13:23:05;101580.00;;;5.74;83.36
68855;BME280;69984;-43.570;172.580;2023-05-11T13:25:34;101589.28;;;5.64;84.41
68855;BME280;69984;-43.570;172.580;2023-05-11T13:28:01;101596.75;;;5.70;84.16
68855;BME280;69984;-43.570;172.580;2023-05-11T13:30:29;101597.56;;;5.84;83.85
68855;BME280;69984;-43.570;172.580;2023-05-11T13:32:56;101603.25;;;5.77;84.08
68855;BME280;69984;-43.570;172.580;2023-05-11T13:35:23;101589.88;;;5.83;82.06
68855;BME280;69984;-43.570;172.580;2023-05-11T13:37:50;101593.16;;;5.86;81.57
68855;BME280;69984;-43.570;172.580;2023-05-11T13:40:17;101604.56;;;5.84;82.76
68855;BME280;69984;-43.570;172.580;2023-05-11T13:42:44;101594.72;;;5.89;83.66
68855;BME280;69984;-43.570;172.580;2023-05-11T13:45:11;101601.50;;;6.06;82.80
68855;BME280;69984;-43.570;172.580;2023-05-11T13:47:38;101605.78;;;5.92;83.44
68855;BME280;69984;-43.570;172.580;2023-05-11T13:50:06;101616.09;;;5.94;83.73
68855;BME280;69984;-43.570;172.580;2023-05-11T13:52:34;101620.34;;;5.95;84.46
68855;BME280;69984;-43.570;172.580;2023-05-11T13:55:02;101609.41;;;5.90;86.08
68855;BME280;69984;-43.570;172.580;2023-05-11T13:57:30;101618.38;;;5.84;86.59
68855;BME280;69984;-43.570;172.580;2023-05-11T13:59:57;101615.31;;;5.78;90.41
68855;BME280;69984;-43.570;172.580;2023-05-11T14:02:24;101622.47;;;5.74;91.95
68855;BME280;69984;-43.570;172.580;2023-05-11T14:04:51;101623.94;;;5.78;92.29
68855;BME280;69984;-43.570;172.580;2023-05-11T14:07:18;101630.63;;;5.68;91.69
68855;BME280;69984;-43.570;172.580;2023-05-11T14:09:45;101634.72;;;5.72;91.02
68855;BME280;69984;-43.570;172.580;2023-05-11T14:12:13;101644.38;;;5.70;90.22
68855;BME280;69984;-43.570;172.580;2023-05-11T14:14:40;101647.63;;;5.74;88.48
68855;BME280;69984;-43.570;172.580;2023-05-11T14:17:10;101638.38;;;5.84;88.32
68855;BME280;69984;-43.570;172.580;2023-05-11T14:19:38;101638.94;;;5.89;87.32
68855;BME280;69984;-43.570;172.580;2023-05-11T14:22:05;101646.69;;;5.90;87.37
68855;BME280;69984;-43.570;172.580;2023-05-11T14:24:33;101654.84;;;5.98;87.32
68855;BME280;69984;-43.570;172.580;2023-05-11T14:27:02;101641.66;;;6.16;83.47
68855;BME280;69984;-43.570;172.580;2023-05-11T14:29:29;101634.22;;;6.10;84.04
68855;BME280;69984;-43.570;172.580;2023-05-11T14:31:56;101639.16;;;6.00;85.02
68855;BME280;69984;-43.570;172.580;2023-05-11T14:34:23;101639.72;;;5.91;88.45
68855;BME280;69984;-43.570;172.580;2023-05-11T14:36:50;101642.66;;;5.99;88.32
68855;BME280;69984;-43.570;172.580;2023-05-11T14:39:17;101633.94;;;6.00;88.87
68855;BME280;69984;-43.570;172.580;2023-05-11T14:41:44;101623.34;;;6.03;87.37
68855;BME280;69984;-43.570;172.580;2023-05-11T14:44:11;101633.84;;;6.01;87.04
68855;BME280;69984;-43.570;172.580;2023-05-11T14:46:38;101646.56;;;5.92;88.61
68855;BME280;69984;-43.570;172.580;2023-05-11T14:49:05;101630.56;;;5.84;88.75
68855;BME280;69984;-43.570;172.580;2023-05-11T14:51:32;101632.63;;;5.93;88.89
68855;BME280;69984;-43.570;172.580;2023-05-11T14:54:00;101624.44;;;5.99;88.39
68855;BME280;69984;-43.570;172.580;2023-05-11T14:56:27;101643.31;;;6.02;88.73
68855;BME280;69984;-43.570;172.580;2023-05-11T14:58:54;101626.06;;;6.01;87.62
68855;BME280;69984;-43.570;172.580;2023-05-11T15:01:21;101628.34;;;6.06;87.24
68855;BME280;69984;-43.570;172.580;2023-05-11T15:03:48;101638.22;;;6.15;86.89
68855;BME280;69984;-43.570;172.580;2023-05-11T15:06:15;101637.19;;;6.18;87.50
68855;BME280;69984;-43.570;172.580;2023-05-11T15:08:47;101638.88;;;6.19;86.58
68855;BME280;69984;-43.570;172.580;2023-05-11T15:11:14;101644.41;;;6.27;86.60
68855;BME280;69984;-43.570;172.580;2023-05-11T15:13:41;101643.31;;;6.31;87.04
68855;BME280;69984;-43.570;172.580;2023-05-11T15:16:08;101643.88;;;6.36;86.44
68855;BME280;69984;-43.570;172.580;2023-05-11T15:18:35;101642.00;;;6.38;86.31
68855;BME280;69984;-43.570;172.580;2023-05-11T15:21:03;101656.56;;;6.40;85.80
68855;BME280;69984;-43.570;172.580;2023-05-11T15:23:31;101652.31;;;6.39;85.28
68855;BME280;69984;-43.570;172.580;2023-05-11T15:25:58;101651.22;;;6.43;85.85
68855;BME280;69984;-43.570;172.580;2023-05-11T15:28:25;101645.44;;;6.38;88.50
68855;BME280;69984;-43.570;172.580;2023-05-11T15:30:52;101656.78;;;6.37;88.51
68855;BME280;69984;-43.570;172.580;2023-05-11T15:33:19;101655.13;;;6.36;87.20
68855;BME280;69984;-43.570;172.580;2023-05-11T15:35:46;101664.44;;;6.12;91.31
68855;BME280;69984;-43.570;172.580;2023-05-11T15:38:15;101662.75;;;6.25;91.84
68855;BME280;69984;-43.570;172.580;2023-05-11T15:40:42;101666.09;;;6.27;91.96
68855;BME280;69984;-43.570;172.580;2023-05-11T15:43:11;101675.97;;;6.22;90.92
68855;BME280;69984;-43.570;172.580;2023-05-11T15:45:38;101679.69;;;6.18;91.16
68855;BME280;69984;-43.570;172.580;2023-05-11T15:48:05;101669.44;;;6.29;90.87
68855;BME280;69984;-43.570;172.580;2023-05-11T15:50:32;101672.84;;;6.30;89.73
68855;BME280;69984;-43.570;172.580;2023-05-11T15:52:59;101680.41;;;6.34;88.97
68855;BME280;69984;-43.570;172.580;2023-05-11T15:55:26;101682.28;;;6.32;87.65
68855;BME280;69984;-43.570;172.580;2023-05-11T15:57:54;101680.78;;;6.42;86.53
68855;BME280;69984;-43.570;172.580;2023-05-11T16:00:21;101676.94;;;6.48;86.82
68855;BME280;69984;-43.570;172.580;2023-05-11T16:02:48;101674.25;;;6.49;86.63
68855;BME280;69984;-43.570;172.580;2023-05-11T16:05:15;101684.81;;;6.75;83.86
68855;BME280;69984;-43.570;172.580;2023-05-11T16:07:42;101690.31;;;6.70;83.11
68855;BME280;69984;-43.570;172.580;2023-05-11T16:10:09;101699.69;;;6.73;83.64
68855;BME280;69984;-43.570;172.580;2023-05-11T16:12:36;101700.53;;;6.73;86.53
68855;BME280;69984;-43.570;172.580;2023-05-11T16:15:04;101698.38;;;6.80;86.70
68855;BME280;69984;-43.570;172.580;2023-05-11T16:17:31;101713.81;;;6.83;88.56
68855;BME280;69984;-43.570;172.580;2023-05-11T16:19:58;101722.63;;;6.94;86.94
68855;BME280;69984;-43.570;172.580;2023-05-11T16:22:25;101716.53;;;6.81;90.31
68855;BME280;69984;-43.570;172.580;2023-05-11T16:24:52;101725.88;;;6.98;87.99
68855;BME280;69984;-43.570;172.580;2023-05-11T16:27:19;101726.31;;;7.04;88.47
68855;BME280;69984;-43.570;172.580;2023-05-11T16:29:46;101721.78;;;6.94;88.53
68855;BME280;69984;-43.570;172.580;2023-05-11T16:32:13;101722.84;;;6.91;88.16
68855;BME280;69984;-43.570;172.580;2023-05-11T16:34:40;101722.28;;;6.86;88.05
68855;BME280;69984;-43.570;172.580;2023-05-11T16:37:07;101734.38;;;6.87;89.06
68855;BME280;69984;-43.570;172.580;2023-05-11T16:39:35;101738.75;;;6.87;89.75
68855;BME280;69984;-43.570;172.580;2023-05-11T16:42:02;101744.94;;;7.13;87.77
68855;BME280;69984;-43.570;172.580;2023-05-11T16:44:29;101746.44;;;7.02;87.58
68855;BME280;69984;-43.570;172.580;2023-05-11T16:46:57;101754.34;;;7.01;88.30
68855;BME280;69984;-43.570;172.580;2023-05-11T16:49:25;101759.97;;;6.95;89.09
68855;BME280;69984;-43.570;172.580;2023-05-11T16:51:52;101753.72;;;6.97;89.04
68855;BME280;69984;-43.570;172.580;2023-05-11T16:54:19;101758.84;;;6.99;90.50
68855;BME280;69984;-43.570;172.580;2023-05-11T16:56:46;101757.91;;;7.00;91.33
68855;BME280;69984;-43.570;172.580;2023-05-11T16:59:14;101756.13;;;7.00;90.94
68855;BME280;69984;-43.570;172.580;2023-05-11T17:01:41;101750.19;;;6.98;90.87
68855;BME280;69984;-43.570;172.580;2023-05-11T17:04:08;101741.53;;;6.98;89.67
68855;BME280;69984;-43.570;172.580;2023-05-11T17:06:35;101750.91;;;7.00;90.48
68855;BME280;69984;-43.570;172.580;2023-05-11T17:09:02;101754.34;;;7.01;89.90
68855;BME280;69984;-43.570;172.580;2023-05-11T17:11:30;101754.00;;;7.07;88.71
68855;BME280;69984;-43.570;172.580;2023-05-11T17:13:57;101740.19;;;7.05;89.47
68855;BME280;69984;-43.570;172.580;2023-05-11T17:16:24;101747.09;;;7.06;90.14
68855;BME280;69984;-43.570;172.580;2023-05-11T17:18:51;101749.50;;;7.09;89.59
68855;BME280;69984;-43.570;172.580;2023-05-11T17:21:18;101751.00;;;7.13;91.57
68855;BME280;69984;-43.570;172.580;2023-05-11T17:23:45;101759.19;;;7.07;92.65
68855;BME280;69984;-43.570;172.580;2023-05-11T17:26:12;101751.88;;;6.99;92.40
68855;BME280;69984;-43.570;172.580;2023-05-11T17:28:39;101756.78;;;6.90;91.58
68855;BME280;69984;-43.570;172.580;2023-05-11T17:31:08;101760.44;;;6.87;91.81
68855;BME280;69984;-43.570;172.580;2023-05-11T17:33:37;101759.16;;;6.80;93.96
68855;BME280;69984;-43.570;172.580;2023-05-11T17:36:05;101769.47;;;6.82;92.44
68855;BME280;69984;-43.570;172.580;2023-05-11T17:38:32;101773.28;;;6.90;88.24
68855;BME280;69984;-43.570;172.580;2023-05-11T17:41:01;101772.41;;;7.04;86.39
68855;BME280;69984;-43.570;172.580;2023-05-11T17:43:31;101770.59;;;7.19;87.90
68855;BME280;69984;-43.570;172.580;2023-05-11T17:45:58;101778.81;;;7.39;87.54
68855;BME280;69984;-43.570;172.580;2023-05-11T17:48:32;101776.25;;;7.25;87.88
68855;BME280;69984;-43.570;172.580;2023-05-11T17:50:59;101777.41;;;7.21;87.16
68855;BME280;69984;-43.570;172.580;2023-05-11T17:53:27;101786.88;;;7.22;87.72
68855;BME280;69984;-43.570;172.580;2023-05-11T17:55:57;101784.28;;;7.22;87.84
68855;BME280;69984;-43.570;172.580;2023-05-11T17:58:25;101787.09;;;7.19;87.58
68855;BME280;69984;-43.570;172.580;2023-05-11T18:00:52;101792.22;;;7.21;88.20
68855;BME280;69984;-43.570;172.580;2023-05-11T18:03:19;101799.94;;;7.22;88.75
68855;BME280;69984;-43.570;172.580;2023-05-11T18:05:46;101796.59;;;7.20;89.50
68855;BME280;69984;-43.570;172.580;2023-05-11T18:08:13;101803.38;;;7.23;90.39
68855;BME280;69984;-43.570;172.580;2023-05-11T18:10:40;101801.47;;;7.66;89.19
68855;BME280;69984;-43.570;172.580;2023-05-11T18:13:07;101806.41;;;7.70;89.65
68855;BME280;69984;-43.570;172.580;2023-05-11T18:15:34;101801.81;;;7.74;89.21
68855;BME280;69984;-43.570;172.580;2023-05-11T18:18:01;101802.16;;;7.55;89.61
68855;BME280;69984;-43.570;172.580;2023-05-11T18:20:28;101811.59;;;7.43;90.48
68855;BME280;69984;-43.570;172.580;2023-05-11T18:22:55;101812.09;;;7.36;91.68
68855;BME280;69984;-43.570;172.580;2023-05-11T18:25:23;101802.69;;;7.33;92.60
68855;BME280;69984;-43.570;172.580;2023-05-11T18:27:53;101817.91;;;7.27;93.66
68855;BME280;69984;-43.570;172.580;2023-05-11T18:30:20;101824.34;;;7.21;94.42
68855;BME280;69984;-43.570;172.580;2023-05-11T18:32:47;101833.75;;;7.24;94.61
68855;BME280;69984;-43.570;172.580;2023-05-11T18:35:14;101834.78;;;7.21;94.00
68855;BME280;69984;-43.570;172.580;2023-05-11T18:37:42;101842.50;;;7.23;93.08
68855;BME280;69984;-43.570;172.580;2023-05-11T18:40:09;101845.09;;;7.23;92.98
68855;BME280;69984;-43.570;172.580;2023-05-11T18:42:36;101846.13;;;7.20;94.61
68855;BME280;69984;-43.570;172.580;2023-05-11T18:45:03;101848.38;;;7.12;94.83
68855;BME280;69984;-43.570;172.580;2023-05-11T18:47:32;101865.56;;;7.15;95.60
68855;BME280;69984;-43.570;172.580;2023-05-11T18:50:06;101866.16;;;7.20;95.21
68855;BME280;69984;-43.570;172.580;2023-05-11T18:52:34;101865.56;;;7.15;95.74
68855;BME280;69984;-43.570;172.580;2023-05-11T18:55:01;101877.69;;;7.16;95.01
68855;BME280;69984;-43.570;172.580;2023-05-11T18:57:28;101876.84;;;7.15;95.65
68855;BME280;69984;-43.570;172.580;2023-05-11T19:00:00;101877.41;;;7.20;95.13
68855;BME280;69984;-43.570;172.580;2023-05-11T19:02:27;101879.91;;;7.22;95.63
68855;BME280;69984;-43.570;172.580;2023-05-11T19:04:54;101884.13;;;7.24;94.91
68855;BME280;69984;-43.570;172.580;2023-05-11T19:07:22;101886.53;;;7.27;93.63
68855;BME280;69984;-43.570;172.580;2023-05-11T19:09:49;101887.38;;;7.28;93.03
68855;BME280;69984;-43.570;172.580;2023-05-11T19:12:16;101891.56;;;7.30;92.89
68855;BME280;69984;-43.570;172.580;2023-05-11T19:14:45;101901.78;;;7.33;93.95
68855;BME280;69984;-43.570;172.580;2023-05-11T19:17:12;101904.31;;;7.35;93.93
68855;BME280;69984;-43.570;172.580;2023-05-11T19:19:39;101910.06;;;7.40;93.79
68855;BME280;69984;-43.570;172.580;2023-05-11T19:22:06;101904.78;;;7.41;93.50
68855;BME280;69984;-43.570;172.580;2023-05-11T19:24:33;101904.47;;;7.46;91.81
68855;BME280;69984;-43.570;172.580;2023-05-11T19:27:00;101912.63;;;7.68;92.02
68855;BME280;69984;-43.570;172.580;2023-05-11T19:29:27;101911.31;;;7.75;91.73
68855;BME280;69984;-43.570;172.580;2023-05-11T19:31:54;101910.88;;;7.69;91.88
68855;BME280;69984;-43.570;172.580;2023-05-11T19:34:21;101923.53;;;7.61;90.19
68855;BME280;69984;-43.570;172.580;2023-05-11T19:36:48;101920.25;;;7.71;91.28
68855;BME280;69984;-43.570;172.580;2023-05-11T19:39:14;101926.31;;;7.72;91.87
68855;BME280;69984;-43.570;172.580;2023-05-11T19:41:42;101945.72;;;7.68;92.28
68855;BME280;69984;-43.570;172.580;2023-05-11T19:44:09;101942.13;;;7.56;91.59
68855;BME280;69984;-43.570;172.580;2023-05-11T19:46:36;101936.50;;;7.62;91.98
68855;BME280;69984;-43.570;172.580;2023-05-11T19:49:11;101958.09;;;7.78;93.44
68855;BME280;69984;-43.570;172.580;2023-05-11T19:51:38;101957.56;;;7.73;92.96
68855;BME280;69984;-43.570;172.580;2023-05-11T19:54:05;101980.94;;;7.75;92.29
68855;BME280;69984;-43.570;172.580;2023-05-11T19:56:32;101985.75;;;7.95;90.69
68855;BME280;69984;-43.570;172.580;2023-05-11T19:59:00;101994.56;;;8.07;88.64
68855;BME280;69984;-43.570;172.580;2023-05-11T20:01:28;101999.38;;;8.27;86.67
68855;BME280;69984;-43.570;172.580;2023-05-11T20:03:55;101999.66;;;8.22;86.19
68855;BME280;69984;-43.570;172.580;2023-05-11T20:06:22;101999.88;;;8.46;85.25
68855;BME280;69984;-43.570;172.580;2023-05-11T20:08:49;102002.78;;;8.41;85.59
68855;BME280;69984;-43.570;172.580;2023-05-11T20:11:17;102015.03;;;8.27;86.78
68855;BME280;69984;-43.570;172.580;2023-05-11T20:13:44;102015.59;;;8.32;87.29
68855;BME280;69984;-43.570;172.580;2023-05-11T20:16:12;102015.84;;;8.27;88.62
68855;BME280;69984;-43.570;172.580;2023-05-11T20:18:39;102020.91;;;8.30;88.62
68855;BME280;69984;-43.570;172.580;2023-05-11T20:21:06;102029.31;;;8.35;90.11
68855;BME280;69984;-43.570;172.580;2023-05-11T20:23:33;102043.44;;;8.45;89.59